New Century, Kansas
Current Conditions -  °F | °C
As of 10:53 PM on Thursday 27 Nov 2014 (Local Time) from KIXD Reporting Station
Clear Clear  
Wind Chill: 20°   Ceiling: Unl
Heat Index: 29°   Visibility: 9mi
Dew Point: 22°   Wind: 10mph
Humidity: 75%   Direction: 140°SE
Pressure: 30.26"   Gusts: NA
Location:  38.81°N, 94.93°W
Report Text: KIXD 280453Z AUTO 14009KT 9SM CLR M02/M06 A3026 RMK AO2 SLP258 T10171056
Loading
Personal Weather Stations






























Interactive Weather Map New forecast layout! Learn more

10-Day Weather Forecast

Advertisements
Track Severe Weather on mobile